Time;durP1;ratioP1;P1;durP2;ratioP2;P2;SDS_P1;SDS_P2;PMS_P1;PMS_P2;Temp;Humidity;BMP_temperature;BMP_pressure;BME280_temperature;BME280_humidity;BME280_pressure;Samples;Min_cycle;Max_cycle;Signal;HPM_P1;HPM_P2
2024/03/08 00:01:39;;;;;;;16.15;9.23;;;;;;;12.81;37.84;101425.59;5030817;28;20538;-65
2024/03/08 00:04:06;;;;;;;22.98;9.88;;;;;;;12.78;37.26;101428.53;5032561;28;20038;-64
2024/03/08 00:06:31;;;;;;;17.73;8.77;;;;;;;12.79;38.10;101424.84;5031688;28;20036;-64
2024/03/08 00:08:57;;;;;;;20.33;9.48;;;;;;;12.76;37.03;101425.94;5031392;28;20041;-64
2024/03/08 00:11:25;;;;;;;19.00;9.73;;;;;;;12.72;36.95;101418.28;5031471;28;20049;-64
2024/03/08 00:13:52;;;;;;;19.02;9.65;;;;;;;12.70;37.71;101417.56;5032810;28;20063;-64
2024/03/08 00:16:19;;;;;;;16.85;9.52;;;;;;;12.68;37.12;101417.69;5031541;28;20042;-65
2024/03/08 00:18:44;;;;;;;17.40;8.77;;;;;;;12.66;37.75;101410.72;5031475;28;20064;-64
2024/03/08 00:21:10;;;;;;;18.60;9.40;;;;;;;12.64;37.10;101418.94;5015250;28;20068;-64
2024/03/08 00:23:36;;;;;;;18.77;10.10;;;;;;;12.62;37.24;101412.81;5033241;28;20030;-65
2024/03/08 00:26:03;;;;;;;17.15;9.93;;;;;;;12.57;37.25;101403.44;5035482;28;20580;-64
2024/03/08 00:28:28;;;;;;;22.85;10.30;;;;;;;12.58;37.31;101406.00;5035372;28;20104;-64
2024/03/08 00:30:54;;;;;;;17.83;9.60;;;;;;;12.58;38.16;101405.16;5031933;28;20497;-64
2024/03/08 00:33:19;;;;;;;19.00;9.23;;;;;;;12.59;37.97;101407.69;5004442;28;20506;-64
2024/03/08 00:35:44;;;;;;;24.05;10.10;;;;;;;12.61;37.26;101405.75;5035055;28;20073;-65
2024/03/08 00:38:10;;;;;;;21.08;10.10;;;;;;;12.61;37.82;101405.75;5036332;28;20036;-64
2024/03/08 00:40:35;;;;;;;16.75;9.13;;;;;;;12.58;37.62;101406.00;5035250;28;20044;-64
2024/03/08 00:43:03;;;;;;;23.55;10.13;;;;;;;12.60;37.09;101400.47;5029603;28;20034;-64
2024/03/08 00:45:28;;;;;;;16.35;8.82;;;;;;;12.56;38.36;101391.00;5015701;28;20038;-64
2024/03/08 00:47:54;;;;;;;14.10;9.10;;;;;;;12.51;37.14;101387.81;4998946;28;20453;-64
2024/03/08 00:50:20;;;;;;;20.42;9.35;;;;;;;12.55;37.79;101394.66;4999033;28;20060;-64
2024/03/08 00:52:46;;;;;;;15.23;8.93;;;;;;;12.53;37.46;101391.25;5015215;28;20034;-64
2024/03/08 00:55:12;;;;;;;23.05;9.68;;;;;;;12.50;36.97;101386.97;5015015;28;20033;-64
2024/03/08 00:57:38;;;;;;;22.48;10.73;;;;;;;12.47;37.14;101381.00;5015198;28;20422;-65
2024/03/08 01:00:09;;;;;;;16.48;8.68;;;;;;;12.44;37.65;101383.94;5015018;28;20124;-64
2024/03/08 01:02:35;;;;;;;21.85;10.25;;;;;;;12.41;37.46;101387.75;5014493;28;20185;-64
2024/03/08 01:05:01;;;;;;;14.63;9.10;;;;;;;12.37;37.77;101374.69;5018147;28;20029;-65
2024/03/08 01:07:26;;;;;;;19.73;10.18;;;;;;;12.32;37.82;101371.53;5017996;28;20029;-64
2024/03/08 01:09:52;;;;;;;17.17;9.27;;;;;;;12.33;37.09;101378.59;5036103;28;20025;-64
2024/03/08 01:12:17;;;;;;;15.68;9.65;;;;;;;12.31;37.16;101377.88;5035757;28;20492;-64
2024/03/08 01:14:43;;;;;;;17.70;9.13;;;;;;;12.31;38.08;101383.25;5035708;28;20461;-64
2024/03/08 01:17:09;;;;;;;18.63;9.10;;;;;;;12.27;37.66;101370.09;5034442;28;20064;-64
2024/03/08 01:19:35;;;;;;;14.98;9.20;;;;;;;12.24;37.15;101374.84;5034592;28;20030;-64
2024/03/08 01:22:00;;;;;;;21.52;9.80;;;;;;;12.25;37.15;101369.34;5017747;28;20499;-64
2024/03/08 01:24:25;;;;;;;19.52;10.23;;;;;;;12.23;38.29;101373.97;5034451;28;20048;-64
2024/03/08 01:26:51;;;;;;;20.40;10.02;;;;;;;12.22;38.15;101371.44;5034341;28;20109;-64
2024/03/08 01:29:16;;;;;;;20.08;10.10;;;;;;;12.17;38.04;101369.13;5035563;28;20058;-64
2024/03/08 01:31:41;;;;;;;14.82;8.35;;;;;;;12.14;38.15;101358.63;5034250;28;20022;-64
2024/03/08 01:34:07;;;;;;;19.38;9.40;;;;;;;12.08;37.25;101353.78;5034777;28;20032;-64
2024/03/08 01:36:32;;;;;;;18.60;9.95;;;;;;;12.04;38.16;101360.38;5034087;28;20075;-64
2024/03/08 01:38:57;;;;;;;18.33;9.52;;;;;;;12.00;38.14;101352.69;5017503;28;20033;-65
2024/03/08 01:41:23;;;;;;;17.65;9.35;;;;;;;11.97;38.44;101350.25;5033891;28;20069;-64
2024/03/08 01:43:50;;;;;;;18.60;8.75;;;;;;;11.93;38.36;101355.03;5034261;28;20057;-64
2024/03/08 01:46:18;;;;;;;25.95;10.95;;;;;;;11.93;38.01;101348.78;5017899;28;20052;-64
2024/03/08 01:48:43;;;;;;;21.75;9.90;;;;;;;11.86;37.58;101353.84;5017467;28;20025;-64
2024/03/08 01:51:09;;;;;;;27.83;10.10;;;;;;;11.89;37.89;101342.81;5035145;28;20041;-64
2024/03/08 01:53:35;;;;;;;19.02;10.23;;;;;;;11.88;37.88;101341.13;5033814;28;20477;-64
2024/03/08 01:56:02;;;;;;;20.00;9.73;;;;;;;11.88;38.11;101351.88;5026159;28;20041;-64
2024/03/08 01:58:28;;;;;;;18.02;10.15;;;;;;;11.85;38.42;101336.00;5013857;28;20065;-64
2024/03/08 02:00:54;;;;;;;20.00;10.57;;;;;;;11.84;37.67;101328.91;5013590;28;20502;-64
2024/03/08 02:03:20;;;;;;;16.13;9.10;;;;;;;11.85;38.25;101325.28;5013861;28;20061;-64
2024/03/08 02:05:45;;;;;;;15.77;9.02;;;;;;;11.85;38.44;101333.31;4997592;28;20115;-64
2024/03/08 02:08:14;;;;;;;18.80;9.45;;;;;;;11.80;38.46;101327.47;5026980;28;20037;-64
2024/03/08 02:10:41;;;;;;;18.73;9.18;;;;;;;11.80;37.94;101318.56;5034506;28;20041;-64
2024/03/08 02:13:07;;;;;;;19.38;9.15;;;;;;;11.80;37.53;101307.84;5033635;28;20026;-64
2024/03/08 02:15:51;;;;;;;17.60;9.82;;;;;;;11.81;38.42;101310.38;5034556;28;20439;-64
2024/03/08 02:18:17;;;;;;;22.80;9.95;;;;;;;11.78;37.96;101318.69;5034789;28;20036;-64
2024/03/08 02:20:42;;;;;;;18.17;10.18;;;;;;;11.76;37.68;101298.31;5033235;28;20120;-64
2024/03/08 02:23:08;;;;;;;19.65;9.07;;;;;;;11.76;38.09;101298.31;5033093;28;20124;-64
2024/03/08 02:25:33;;;;;;;26.00;10.73;;;;;;;11.76;37.74;101298.31;5033325;28;20041;-64
2024/03/08 02:27:59;;;;;;;19.02;9.75;;;;;;;11.74;38.17;101303.81;5033290;28;20489;-64
2024/03/08 02:30:25;;;;;;;17.70;9.45;;;;;;;11.71;38.59;101292.47;5034321;28;20124;-64
2024/03/08 02:32:50;;;;;;;17.90;9.60;;;;;;;11.67;37.90;101290.00;5034395;28;20124;-63
2024/03/08 02:35:16;;;;;;;19.52;9.00;;;;;;;11.66;38.39;101298.19;5034262;28;20575;-63
2024/03/08 02:37:41;;;;;;;17.83;9.48;;;;;;;11.63;39.02;101285.03;5016403;28;20410;-63
2024/03/08 02:40:07;;;;;;;16.75;9.00;;;;;;;11.60;38.64;101285.28;5034329;28;20088;-64
2024/03/08 02:42:32;;;;;;;24.42;9.70;;;;;;;11.56;37.84;101287.34;5034307;28;20030;-64
2024/03/08 02:44:58;;;;;;;19.58;8.88;;;;;;;11.48;38.47;101273.69;5033619;28;20551;-63
2024/03/08 02:47:23;;;;;;;18.25;9.05;;;;;;;11.46;38.41;101280.16;5033540;28;20030;-64
2024/03/08 02:49:50;;;;;;;23.17;10.00;;;;;;;11.44;38.51;101276.78;5033988;28;20121;-64
2024/03/08 02:52:16;;;;;;;18.35;9.55;;;;;;;11.41;38.51;101271.66;5032743;28;20038;-66
2024/03/08 02:54:41;;;;;;;18.42;8.20;;;;;;;11.38;38.45;101269.22;5032821;28;20493;-64
2024/03/08 02:57:07;;;;;;;21.90;9.45;;;;;;;11.37;38.08;101270.19;5034045;28;20124;-64
2024/03/08 02:59:33;;;;;;;20.48;9.90;;;;;;;11.30;38.42;101260.94;5032926;28;20401;-64
2024/03/08 03:01:58;;;;;;;18.25;9.45;;;;;;;11.31;38.76;101273.34;5032336;28;20045;-63
2024/03/08 03:04:23;;;;;;;18.67;8.45;;;;;;;11.29;38.36;101272.63;5032591;28;20087;-64
2024/03/08 03:06:49;;;;;;;22.17;10.07;;;;;;;11.26;38.72;101264.81;5017746;28;20115;-64
2024/03/08 03:09:16;;;;;;;16.63;9.45;;;;;;;11.24;39.02;101261.41;5035821;28;20114;-65
2024/03/08 03:11:44;;;;;;;21.55;9.90;;;;;;;11.21;38.26;101258.97;5034703;28;20493;-64
2024/03/08 03:14:09;;;;;;;16.58;8.65;;;;;;;11.18;38.77;101256.53;5035540;28;20049;-64
2024/03/08 03:16:35;;;;;;;20.55;9.52;;;;;;;11.16;39.29;101250.47;5035447;28;20095;-64
2024/03/08 03:19:01;;;;;;;22.48;9.07;;;;;;;11.16;38.74;101250.47;5035042;28;20040;-64
2024/03/08 03:21:31;;;;;;;19.67;9.30;;;;;;;11.13;39.06;101250.69;5032272;28;20072;-64
2024/03/08 03:23:57;;;;;;;24.75;9.88;;;;;;;11.09;39.01;101250.09;5032192;28;20033;-64
2024/03/08 03:26:22;;;;;;;19.30;10.18;;;;;;;11.07;38.55;101247.53;5032288;28;20057;-64
2024/03/08 03:28:48;;;;;;;20.95;9.57;;;;;;;11.04;38.24;101246.91;5033253;28;20034;-64
2024/03/08 03:31:14;;;;;;;21.13;9.75;;;;;;;11.03;39.56;101246.06;5031984;28;20056;-64
2024/03/08 03:33:40;;;;;;;21.10;9.82;;;;;;;11.00;38.78;101240.94;5033079;28;20033;-64
2024/03/08 03:36:05;;;;;;;21.63;9.60;;;;;;;10.98;39.36;101236.69;5015406;28;20040;-64
2024/03/08 03:38:31;;;;;;;22.83;8.98;;;;;;;10.97;39.20;101230.47;5032100;28;20405;-63
2024/03/08 03:41:04;;;;;;;19.52;9.57;;;;;;;10.97;38.71;101251.91;5015956;28;20045;-64
2024/03/08 03:43:29;;;;;;;16.90;9.35;;;;;;;10.94;39.06;101236.06;5033165;28;20037;-64
2024/03/08 03:45:55;;;;;;;26.63;10.07;;;;;;;10.98;39.13;101231.31;5032544;28;20060;-64
2024/03/08 03:48:21;;;;;;;25.40;9.70;;;;;;;10.94;38.82;101236.06;5032968;28;20061;-64
2024/03/08 03:50:46;;;;;;;19.67;8.35;;;;;;;10.91;38.69;101236.34;5031741;28;20070;-64
2024/03/08 03:53:13;;;;;;;17.92;9.88;;;;;;;10.91;39.44;101235.47;5031630;28;20037;-64
2024/03/08 03:55:38;;;;;;;22.77;10.15;;;;;;;10.87;38.91;101229.50;5031688;28;20030;-64
2024/03/08 03:58:04;;;;;;;21.58;10.27;;;;;;;10.83;38.49;101228.03;5032596;28;20045;-65
2024/03/08 04:00:29;;;;;;;23.33;10.20;;;;;;;10.82;38.60;101225.47;5031228;28;20116;-65
2024/03/08 04:02:58;;;;;;;19.55;8.75;;;;;;;10.79;39.17;101223.88;5031508;28;20037;-64
2024/03/08 04:05:24;;;;;;;21.40;11.10;;;;;;;10.80;39.28;101233.66;5015575;28;20030;-64
2024/03/08 04:07:49;;;;;;;23.25;10.07;;;;;;;10.73;38.83;101216.34;5032923;28;20113;-64
2024/03/08 04:10:14;;;;;;;25.40;10.65;;;;;;;10.73;38.59;101227.06;5031622;28;20576;-64
2024/03/08 04:12:40;;;;;;;25.77;10.38;;;;;;;10.73;39.30;101221.69;5031495;28;20569;-64
2024/03/08 04:15:07;;;;;;;21.58;9.98;;;;;;;10.72;38.99;101205.75;5031556;28;20030;-64
2024/03/08 04:17:35;;;;;;;18.02;8.77;;;;;;;10.70;39.03;101216.56;5031473;28;20382;-64
2024/03/08 04:20:01;;;;;;;20.75;10.63;;;;;;;10.66;38.89;101206.22;5032620;28;20033;-64
2024/03/08 04:22:28;;;;;;;20.27;10.15;;;;;;;10.65;39.31;101210.72;5031195;28;20516;-64
2024/03/08 04:24:53;;;;;;;18.77;9.27;;;;;;;10.64;39.15;101210.84;5031518;28;20516;-64
2024/03/08 04:27:19;;;;;;;20.48;10.60;;;;;;;10.60;39.36;101215.59;5015039;28;20033;-63
2024/03/08 04:29:44;;;;;;;25.20;11.93;;;;;;;10.55;39.16;101195.50;5014944;28;20516;-64
2024/03/08 04:32:10;;;;;;;18.02;9.63;;;;;;;10.52;39.31;101201.97;5031309;28;20022;-64
2024/03/08 04:34:35;;;;;;;23.10;9.77;;;;;;;10.51;39.44;101197.56;5014703;28;20029;-64
2024/03/08 04:37:02;;;;;;;22.15;10.75;;;;;;;10.46;39.61;101197.06;5032595;28;20030;-64
2024/03/08 04:39:28;;;;;;;21.80;9.90;;;;;;;10.46;39.46;101197.06;5031502;28;20110;-64
2024/03/08 04:41:56;;;;;;;26.50;10.13;;;;;;;10.42;39.02;101184.88;5031216;28;20033;-64
2024/03/08 04:44:21;;;;;;;30.73;11.02;;;;;;;10.41;39.39;101188.53;5031135;28;20033;-64
2024/03/08 04:46:47;;;;;;;21.80;10.25;;;;;;;10.40;39.45;101182.34;5031194;28;20121;-64
2024/03/08 04:49:13;;;;;;;17.40;10.30;;;;;;;10.36;39.40;101175.50;5032344;28;20037;-64
2024/03/08 04:51:38;;;;;;;20.33;9.63;;;;;;;10.39;39.46;101174.41;5032386;28;20025;-64
2024/03/08 04:54:04;;;;;;;25.80;10.13;;;;;;;10.40;39.35;101181.47;5032352;28;20394;-64
2024/03/08 04:56:30;;;;;;;26.48;11.38;;;;;;;10.39;39.42;101175.25;5031194;28;20056;-64
2024/03/08 04:58:55;;;;;;;22.55;11.35;;;;;;;10.39;39.45;101169.91;5014648;28;20501;-64
2024/03/08 05:01:21;;;;;;;23.17;11.10;;;;;;;10.44;39.31;101182.97;5032005;28;20519;-64
2024/03/08 05:03:49;;;;;;;22.45;10.43;;;;;;;10.42;39.95;101174.16;5031195;28;20552;-64
2024/03/08 05:06:15;;;;;;;19.00;10.27;;;;;;;10.43;39.55;101175.88;5031082;28;20117;-64
2024/03/08 05:08:40;;;;;;;27.88;10.70;;;;;;;10.41;39.69;101161.78;5014903;28;20400;-64
2024/03/08 05:11:07;;;;;;;20.00;9.05;;;;;;;10.44;39.52;101172.25;5035914;28;20136;-64
2024/03/08 05:13:32;;;;;;;27.58;11.38;;;;;;;10.43;39.82;101171.38;5035757;28;20026;-64
2024/03/08 05:15:58;;;;;;;21.65;9.70;;;;;;;10.44;39.05;101172.25;5034486;28;20113;-64
2024/03/08 05:18:24;;;;;;;27.48;10.43;;;;;;;10.43;39.26;101166.03;5034431;28;20030;-64
2024/03/08 05:20:50;;;;;;;21.40;9.02;;;;;;;10.42;39.25;101158.97;5017832;28;20034;-65
2024/03/08 05:23:15;;;;;;;21.52;12.27;;;;;;;10.41;39.68;101167.13;5035661;28;20037;-64
2024/03/08 05:25:41;;;;;;;22.05;10.27;;;;;;;10.40;39.11;101160.06;5034360;28;20033;-64
2024/03/08 05:28:06;;;;;;;19.48;9.40;;;;;;;10.44;39.83;101161.53;5018029;28;20394;-64
2024/03/08 05:30:32;;;;;;;27.73;10.18;;;;;;;10.41;39.63;101153.75;5035668;28;20486;-64
2024/03/08 05:32:57;;;;;;;21.77;10.15;;;;;;;10.39;40.06;101156.53;5034137;28;20054;-64
2024/03/08 05:35:23;;;;;;;25.15;11.43;;;;;;;10.39;39.97;101158.34;5035424;28;20034;-64
2024/03/08 05:37:48;;;;;;;24.55;10.25;;;;;;;10.40;39.55;101160.06;5017663;28;20132;-64
2024/03/08 05:40:13;;;;;;;23.50;10.05;;;;;;;10.40;39.67;101154.69;5034174;28;20519;-64
2024/03/08 05:42:39;;;;;;;22.55;11.05;;;;;;;10.40;39.44;101162.72;5033942;28;20048;-64
2024/03/08 05:45:06;;;;;;;23.13;10.68;;;;;;;10.40;39.80;101154.69;5034031;28;20040;-64
2024/03/08 05:47:32;;;;;;;20.25;10.70;;;;;;;10.42;39.91;101158.09;5035126;28;20116;-64
2024/03/08 05:49:58;;;;;;;22.05;10.27;;;;;;;10.40;39.84;101152.88;5017407;28;20038;-64
2024/03/08 05:52:25;;;;;;;23.25;11.02;;;;;;;10.38;39.12;101145.94;5035133;28;20175;-65
2024/03/08 05:54:51;;;;;;;23.90;10.90;;;;;;;10.39;39.74;101142.28;5017614;28;20076;-64
2024/03/08 05:57:16;;;;;;;25.40;10.88;;;;;;;10.39;39.73;101136.91;5036519;28;20405;-64
2024/03/08 05:59:42;;;;;;;24.58;11.23;;;;;;;10.38;39.41;101132.56;5035074;28;20037;-64
2024/03/08 06:02:07;;;;;;;25.02;10.90;;;;;;;10.33;40.02;101132.91;5033543;28;20528;-64
2024/03/08 06:04:35;;;;;;;21.20;10.85;;;;;;;10.32;39.52;101128.53;5035054;28;20390;-65
2024/03/08 06:07:03;;;;;;;21.55;9.90;;;;;;;10.33;39.75;101126.72;5017094;28;20081;-64
2024/03/08 06:09:28;;;;;;;25.20;11.20;;;;;;;10.30;39.72;101121.59;5033958;28;20402;-64
2024/03/08 06:11:54;;;;;;;20.17;9.88;;;;;;;10.28;39.84;101123.53;5034777;28;20025;-64
2024/03/08 06:14:19;;;;;;;26.23;10.68;;;;;;;10.27;40.16;101122.66;5033315;28;20021;-64
2024/03/08 06:16:46;;;;;;;25.10;10.13;;;;;;;10.27;39.70;101116.47;5033374;28;20032;-64
2024/03/08 06:19:12;;;;;;;20.60;9.80;;;;;;;10.25;39.39;101110.38;5034562;28;20048;-64
2024/03/08 06:21:37;;;;;;;24.10;9.95;;;;;;;10.26;39.40;101106.72;5034400;28;20072;-64
2024/03/08 06:24:03;;;;;;;21.20;9.15;;;;;;;10.30;39.77;101116.25;5016675;28;20029;-65
2024/03/08 06:26:28;;;;;;;22.88;9.82;;;;;;;10.31;40.18;101112.56;5033108;28;20075;-64
2024/03/08 06:28:54;;;;;;;23.55;10.27;;;;;;;10.39;40.40;101115.50;5033397;28;20108;-64
2024/03/08 06:31:19;;;;;;;31.55;10.80;;;;;;;10.46;39.81;101119.41;5033075;28;20022;-65
2024/03/08 06:33:45;;;;;;;24.95;11.18;;;;;;;10.55;39.44;101116.00;5033384;28;20044;-63
2024/03/08 06:36:11;;;;;;;21.25;9.50;;;;;;;10.63;39.48;101113.56;5033208;28;20087;-64
2024/03/08 06:38:46;;;;;;;20.23;10.02;;;;;;;10.74;39.43;101110.03;5032874;28;20052;-65
2024/03/08 06:41:15;;;;;;;33.03;11.30;;;;;;;10.80;39.19;101106.84;5017400;28;20036;-65
2024/03/08 06:43:48;;;;;;;25.13;10.35;;;;;;;10.88;39.59;101102.59;5033045;28;20047;-64
2024/03/08 06:46:17;;;;;;;24.17;11.48;;;;;;;10.95;40.10;101103.78;5032932;28;20025;-64
2024/03/08 06:48:42;;;;;;;28.45;10.57;;;;;;;11.01;39.38;101103.28;5032737;28;20115;-64
2024/03/08 06:51:08;;;;;;;23.77;9.80;;;;;;;11.07;40.05;101097.41;5016188;28;20057;-64
2024/03/08 06:53:34;;;;;;;20.27;10.02;;;;;;;11.16;39.52;101103.00;5032914;28;20113;-64
2024/03/08 06:56:01;;;;;;;23.95;10.48;;;;;;;11.21;39.15;101098.09;5033849;28;20075;-64
2024/03/08 06:58:27;;;;;;;26.60;11.02;;;;;;;11.31;39.07;101109.75;5032847;28;20026;-64
2024/03/08 07:00:53;;;;;;;21.05;10.38;;;;;;;11.42;39.61;101112.41;5033770;28;20091;-64
2024/03/08 07:03:18;;;;;;;22.23;11.23;;;;;;;11.51;39.25;101112.50;5032721;28;20029;-64
2024/03/08 07:05:44;;;;;;;22.13;10.82;;;;;;;11.60;39.01;101111.72;5032618;28;20117;-64
2024/03/08 07:08:09;;;;;;;22.38;11.15;;;;;;;11.72;39.25;101112.56;5032370;28;20087;-64
2024/03/08 07:10:36;;;;;;;23.92;10.95;;;;;;;11.80;39.49;101107.41;5033614;28;20033;-64
2024/03/08 07:13:02;;;;;;;22.13;9.80;;;;;;;11.93;38.76;101096.47;5032243;28;20095;-64
2024/03/08 07:15:28;;;;;;;22.48;10.68;;;;;;;12.06;38.87;101100.63;5033537;28;20029;-64
2024/03/08 07:17:54;;;;;;;20.70;10.07;;;;;;;12.19;39.18;101106.69;5015746;28;20037;-64
2024/03/08 07:20:19;;;;;;;22.40;10.68;;;;;;;12.30;38.96;101099.50;5033435;28;20493;-64
2024/03/08 07:22:50;;;;;;;21.02;10.00;;;;;;;12.42;38.94;101093.94;5032230;28;20060;-65
2024/03/08 07:25:22;;;;;;;26.42;10.43;;;;;;;12.54;38.51;101097.34;5032110;28;20517;-64
2024/03/08 07:27:48;;;;;;;23.58;11.27;;;;;;;12.61;38.93;101090.47;5033308;28;20025;-65
2024/03/08 07:30:52;;;;;;;20.48;10.02;;;;;;;12.69;38.64;101090.63;5015628;28;20559;-64
2024/03/08 07:32:59;;;;;;;24.75;10.20;;;;;;;12.87;39.07;101086.28;5032572;28;20108;-64
2024/03/08 07:35:26;;;;;;;19.98;9.35;;;;;;;13.04;38.75;101091.00;5033298;28;20508;-64
2024/03/08 07:37:54;;;;;;;23.92;11.65;;;;;;;13.16;38.47;101067.56;5015764;28;20128;-64
2024/03/08 07:40:23;;;;;;;20.98;10.05;;;;;;;13.32;38.43;101066.00;5033096;28;20033;-65
2024/03/08 07:42:49;;;;;;;26.02;12.52;;;;;;;13.47;37.78;101063.75;5016239;28;20042;-64
2024/03/08 07:45:15;;;;;;;23.63;10.07;;;;;;;13.64;39.28;101068.44;5032992;28;20116;-64
2024/03/08 07:47:41;;;;;;;24.50;10.00;;;;;;;13.71;37.86;101057.91;5031925;28;20095;-64
2024/03/08 07:50:08;;;;;;;24.58;10.85;;;;;;;13.84;38.43;101048.56;5031829;28;20127;-64
2024/03/08 07:52:36;;;;;;;23.88;10.80;;;;;;;13.97;37.16;101050.94;5031921;28;20038;-65
2024/03/08 07:55:05;;;;;;;20.42;10.15;;;;;;;14.07;37.33;101045.53;5015346;28;20025;-64
2024/03/08 07:57:31;;;;;;;24.00;10.18;;;;;;;14.20;37.06;101036.13;5015329;28;20556;-64
2024/03/08 07:59:56;;;;;;;22.95;10.05;;;;;;;14.32;38.03;101032.25;5031661;28;20093;-64
2024/03/08 08:02:21;;;;;;;18.88;9.80;;;;;;;14.47;38.00;101036.19;5031381;28;20120;-65
2024/03/08 08:04:47;;;;;;;20.05;9.88;;;;;;;14.60;36.47;101037.69;5033146;28;20057;-64
2024/03/08 08:07:12;;;;;;;20.48;10.07;;;;;;;14.68;37.99;101027.00;5031490;28;20029;-64
2024/03/08 08:09:37;;;;;;;22.15;9.88;;;;;;;14.77;37.65;101034.19;5032834;28;20040;-64
2024/03/08 08:12:04;;;;;;;22.38;10.55;;;;;;;14.84;37.69;101019.09;5032801;28;20026;-64
2024/03/08 08:14:30;;;;;;;21.33;9.98;;;;;;;14.97;36.48;101019.56;5031481;28;20033;-64
2024/03/08 08:16:57;;;;;;;21.20;10.57;;;;;;;15.06;37.91;101021.34;5031680;28;20517;-64
2024/03/08 08:19:22;;;;;;;23.50;10.65;;;;;;;15.17;36.07;101007.63;5031575;28;20030;-64
2024/03/08 08:21:48;;;;;;;22.42;9.48;;;;;;;15.26;36.93;101000.44;5031503;28;20034;-64
2024/03/08 08:24:14;;;;;;;19.20;10.52;;;;;;;15.39;36.95;101012.53;5031543;28;20029;-64
2024/03/08 08:26:39;;;;;;;20.95;10.82;;;;;;;15.52;36.75;101004.91;5031488;28;20029;-65
2024/03/08 08:29:06;;;;;;;18.60;9.68;;;;;;;15.60;36.30;100993.34;5031473;28;20040;-64
2024/03/08 08:31:32;;;;;;;23.15;9.63;;;;;;;15.73;36.61;100994.63;5031377;28;20021;-64
2024/03/08 08:33:58;;;;;;;19.10;10.52;;;;;;;15.92;36.47;100987.31;5014950;28;20509;-64
2024/03/08 08:36:29;;;;;;;19.80;9.55;;;;;;;16.05;35.62;100987.75;5031357;28;20163;-64
2024/03/08 08:38:56;;;;;;;18.63;10.73;;;;;;;16.18;35.66;100988.13;5031403;28;20064;-64
2024/03/08 08:41:21;;;;;;;16.75;9.68;;;;;;;16.26;36.18;100986.31;5032569;28;20117;-64
2024/03/08 08:43:49;;;;;;;20.65;10.25;;;;;;;16.37;35.68;100987.03;5015415;28;20470;-64
2024/03/08 08:46:17;;;;;;;21.38;10.60;;;;;;;16.51;35.50;100973.75;5035345;28;20037;-64
2024/03/08 08:48:42;;;;;;;21.52;10.38;;;;;;;16.65;35.59;100959.63;5018545;28;20079;-65
2024/03/08 08:51:15;;;;;;;23.15;10.30;;;;;;;16.74;36.08;100966.75;5035094;28;20128;-64
2024/03/08 08:53:42;;;;;;;18.10;9.52;;;;;;;16.84;35.42;100962.03;5036157;28;20040;-64
2024/03/08 08:56:08;;;;;;;22.35;11.43;;;;;;;16.91;34.73;100958.66;5034966;28;20033;-65
2024/03/08 08:58:33;;;;;;;22.00;10.27;;;;;;;16.97;35.06;100958.00;5036012;28;20036;-64
2024/03/08 09:00:59;;;;;;;18.35;9.68;;;;;;;17.07;34.26;100953.25;5034460;28;20053;-65
2024/03/08 09:03:27;;;;;;;20.65;10.55;;;;;;;17.19;35.48;100941.09;5035622;28;20049;-65
2024/03/08 09:05:52;;;;;;;18.35;10.00;;;;;;;17.30;35.10;100943.47;5035871;28;20029;-65
2024/03/08 09:08:18;;;;;;;21.65;10.45;;;;;;;17.47;35.59;100951.38;5034661;28;20160;-64
2024/03/08 09:10:43;;;;;;;20.92;10.85;;;;;;;17.58;34.62;100941.28;5034810;28;20025;-64
2024/03/08 09:13:10;;;;;;;21.25;10.02;;;;;;;17.70;35.09;100940.72;5034651;28;20022;-65
2024/03/08 09:15:36;;;;;;;22.33;10.63;;;;;;;17.87;35.00;100941.53;5036157;28;20036;-65
2024/03/08 09:18:02;;;;;;;17.17;9.65;;;;;;;18.02;34.26;100946.06;5018318;28;20074;-66
2024/03/08 09:20:27;;;;;;;18.75;9.65;;;;;;;18.12;34.37;100928.78;5034389;28;20025;-65
2024/03/08 09:22:52;;;;;;;21.38;9.30;;;;;;;18.22;33.77;100926.69;5017888;28;20396;-66
2024/03/08 09:25:18;;;;;;;16.08;9.95;;;;;;;18.30;33.75;100927.50;5017846;28;20031;-66
2024/03/08 09:27:43;;;;;;;20.40;10.63;;;;;;;18.43;33.68;100926.91;5034318;28;20032;-66
2024/03/08 09:30:09;;;;;;;21.45;9.93;;;;;;;18.57;33.38;100918.03;5034233;28;20025;-66
2024/03/08 09:32:34;;;;;;;18.35;10.00;;;;;;;18.73;33.35;100911.69;5034101;28;20045;-66
2024/03/08 09:35:01;;;;;;;19.73;10.05;;;;;;;18.88;33.43;100916.16;5034255;28;20053;-66
2024/03/08 09:37:26;;;;;;;16.73;9.48;;;;;;;19.00;33.37;100903.00;5034437;28;20049;-66
2024/03/08 09:39:51;;;;;;;16.77;9.20;;;;;;;19.18;32.78;100901.66;5034233;28;20033;-65
2024/03/08 09:42:17;;;;;;;19.50;10.05;;;;;;;19.55;32.48;100891.81;5035244;28;20461;-66
2024/03/08 09:44:46;;;;;;;17.23;9.65;;;;;;;20.19;32.01;100885.63;5017662;28;20460;-66
2024/03/08 09:47:13;;;;;;;15.38;9.15;;;;;;;22.19;29.45;100886.19;5017423;28;20033;-66
2024/03/08 09:49:40;;;;;;;19.35;9.45;;;;;;;22.81;28.80;100870.44;5033790;28;20025;-65
2024/03/08 09:52:06;;;;;;;20.63;9.75;;;;;;;22.20;30.25;100872.31;5017560;28;20055;-65
2024/03/08 09:54:31;;;;;;;23.95;12.50;;;;;;;21.90;30.48;100854.56;5033456;28;20032;-65
2024/03/08 09:56:57;;;;;;;17.58;9.20;;;;;;;21.79;29.81;100857.81;5035139;28;20117;-66
2024/03/08 10:01:47;;;;;;;24.08;10.40;;;;;;;21.81;30.08;100851.13;5034851;28;20037;-66
2024/03/08 10:04:13;;;;;;;18.00;9.73;;;;;;;21.89;30.41;100852.84;5034926;28;20104;-65
2024/03/08 10:06:40;;;;;;;27.65;9.25;;;;;;;21.93;29.31;100856.88;5033799;28;20180;-66
2024/03/08 10:09:07;;;;;;;17.90;9.75;;;;;;;22.03;30.26;100854.59;5017087;28;20495;-66
2024/03/08 10:11:33;;;;;;;16.10;9.00;;;;;;;22.12;29.93;100850.66;5033524;28;20079;-65
2024/03/08 10:14:00;;;;;;;17.52;9.38;;;;;;;22.21;29.40;100846.72;5033629;28;20096;-65
2024/03/08 10:16:27;;;;;;;16.67;9.23;;;;;;;22.35;29.73;100832.06;5033446;28;20053;-65
2024/03/08 10:18:53;;;;;;;19.40;9.32;;;;;;;22.53;28.68;100840.50;5034942;28;20120;-65
2024/03/08 10:21:19;;;;;;;18.42;9.80;;;;;;;22.62;29.31;100832.97;5033235;28;20052;-66
2024/03/08 10:23:44;;;;;;;17.40;9.88;;;;;;;22.73;29.02;100831.53;5034727;28;20455;-66
2024/03/08 10:26:14;;;;;;;15.88;9.23;;;;;;;22.79;28.42;100819.78;5017167;28;20053;-65
2024/03/08 10:28:44;;;;;;;17.65;10.07;;;;;;;22.92;28.68;100822.53;5034832;28;20040;-66
2024/03/08 10:31:10;;;;;;;22.13;10.68;;;;;;;23.05;29.28;100812.47;5033656;28;20053;-65
2024/03/08 10:33:35;;;;;;;14.98;8.73;;;;;;;23.21;28.53;100805.69;5034825;28;20116;-64
2024/03/08 10:36:03;;;;;;;16.58;8.77;;;;;;;23.28;28.72;100798.34;5034067;28;20041;-65
2024/03/08 10:38:34;;;;;;;16.67;9.23;;;;;;;23.29;28.20;100808.22;5033755;28;20025;-65
2024/03/08 10:41:00;;;;;;;15.93;9.35;;;;;;;23.23;28.38;100792.66;5033425;28;20034;-65
2024/03/08 10:43:30;;;;;;;14.98;8.73;;;;;;;23.28;28.47;100790.16;5032917;28;20041;-65
2024/03/08 10:46:22;;;;;;;17.80;9.98;;;;;;;23.38;28.54;100792.47;5016640;28;20040;-65
2024/03/08 10:48:49;;;;;;;15.75;9.27;;;;;;;23.47;28.18;100791.19;5016514;28;20038;-66
2024/03/08 10:51:15;;;;;;;14.55;9.00;;;;;;;23.49;28.56;100787.19;5032883;28;20025;-65
2024/03/08 10:53:41;;;;;;;18.00;9.93;;;;;;;23.55;27.77;100785.47;5016308;28;20033;-65
2024/03/08 10:56:07;;;;;;;16.35;9.35;;;;;;;23.65;27.93;100775.75;5032844;28;20029;-65
2024/03/08 10:58:34;;;;;;;15.05;9.07;;;;;;;23.69;27.94;100779.75;5032815;28;20037;-65
2024/03/08 11:00:59;;;;;;;16.60;9.68;;;;;;;23.68;27.43;100764.41;5032412;28;20046;-65
2024/03/08 11:03:40;;;;;;;14.70;9.48;;;;;;;23.77;27.84;100765.84;5032521;28;20056;-66
2024/03/08 11:06:14;;;;;;;19.83;9.60;;;;;;;23.81;28.06;100752.56;5033505;28;20034;-67
2024/03/08 11:08:40;;;;;;;13.88;8.23;;;;;;;23.95;28.00;100769.78;5033518;28;20497;-66
2024/03/08 11:11:05;;;;;;;12.70;8.02;;;;;;;24.11;27.81;100753.72;5032539;28;20049;-65
2024/03/08 11:13:48;;;;;;;15.95;8.63;;;;;;;24.37;27.09;100747.25;5032574;28;20095;-68